createdAt,value
2022-08-28T05:39:00.483Z,17.40
2022-08-28T05:43:54.925Z,17.40
2022-08-28T06:09:33.523Z,17.70
2022-08-28T06:14:27.551Z,17.80
2022-08-28T06:32:07.276Z,18.20
2022-08-28T06:37:00.998Z,18.30
2022-08-28T06:41:54.467Z,18.50
2022-08-28T06:46:49.603Z,18.70
2022-08-28T06:51:44.638Z,18.70
2022-08-28T06:56:39.191Z,18.80
2022-08-28T07:01:35.236Z,18.90
2022-08-28T07:06:32.290Z,19.00
2022-08-28T07:11:30.079Z,19.00
2022-08-28T07:16:26.121Z,19.20
2022-08-28T07:21:20.617Z,19.20
2022-08-28T07:26:17.553Z,19.50
2022-08-28T07:31:15.574Z,19.70
2022-08-28T07:36:15.802Z,19.80
2022-08-28T07:41:17.355Z,20.10
2022-08-28T07:46:12.743Z,20.30
2022-08-28T07:51:07.417Z,20.40
2022-08-28T07:56:01.148Z,20.50
2022-08-28T08:00:55.933Z,20.50
2022-08-28T08:05:56.409Z,20.60
2022-08-28T08:11:01.646Z,20.80
2022-08-28T08:15:55.296Z,21.10
2022-08-28T08:20:49.000Z,21.40
2022-08-28T08:25:44.106Z,21.50
2022-08-28T08:30:37.700Z,21.70
2022-08-28T08:35:31.746Z,21.90
2022-08-28T08:40:25.403Z,22.10
2022-08-28T08:45:26.580Z,22.50
2022-08-28T08:50:22.279Z,23.00
2022-08-28T08:55:24.650Z,23.60
2022-08-28T09:00:21.229Z,23.90
2022-08-28T09:05:18.925Z,24.00
2022-08-28T09:10:15.795Z,24.10
2022-08-28T09:15:14.050Z,24.20
2022-08-28T09:20:13.414Z,24.50
2022-08-28T09:25:07.549Z,24.80
2022-08-28T09:30:08.032Z,25.00
2022-08-28T09:35:14.590Z,25.30
2022-08-28T09:40:24.862Z,25.50
2022-08-28T09:45:21.462Z,25.70
2022-08-28T09:50:38.885Z,26.00
2022-08-28T09:55:38.074Z,26.40
2022-08-28T10:00:35.737Z,26.80
2022-08-28T10:05:41.746Z,27.30
2022-08-28T10:10:43.239Z,27.70
2022-08-28T10:15:50.212Z,27.70
2022-08-28T10:20:54.870Z,28.20
2022-08-28T10:25:56.898Z,28.70
2022-08-28T10:31:00.091Z,28.90
2022-08-28T10:36:03.042Z,29.50
2022-08-28T10:41:03.278Z,29.70
2022-08-28T10:45:59.732Z,29.60
2022-08-28T10:50:59.486Z,29.70
2022-08-28T10:55:57.818Z,29.60
2022-08-28T11:00:52.337Z,29.00
2022-08-28T11:05:53.908Z,29.20
2022-08-28T11:10:52.109Z,29.70
2022-08-28T11:15:53.826Z,30.00
2022-08-28T11:20:59.970Z,30.40
2022-08-28T11:25:59.053Z,30.00
2022-08-28T11:31:31.726Z,30.00
2022-08-28T11:36:56.290Z,30.10
2022-08-28T11:42:32.976Z,29.60
2022-08-28T11:47:48.130Z,29.50
2022-08-28T11:53:04.097Z,30.30
2022-08-28T12:03:12.112Z,31.50
2022-08-28T12:08:06.109Z,31.90
2022-08-28T12:13:01.209Z,32.30
2022-08-28T12:17:57.321Z,32.00
2022-08-28T12:22:54.801Z,32.60
2022-08-28T12:27:48.491Z,32.90
2022-08-28T12:32:47.882Z,33.20
2022-08-28T12:37:52.647Z,33.40
2022-08-28T12:42:55.664Z,32.90
2022-08-28T12:47:52.221Z,32.90
2022-08-28T12:52:51.548Z,32.70
2022-08-28T12:57:46.631Z,32.80
2022-08-28T13:02:47.554Z,32.60
2022-08-28T13:07:54.550Z,32.40
2022-08-28T13:12:56.825Z,29.60
2022-08-28T13:17:55.067Z,28.30
2022-08-28T13:23:10.031Z,28.40
2022-08-28T13:28:14.795Z,29.00
2022-08-28T13:33:22.712Z,29.30
2022-08-28T13:38:18.552Z,28.90
2022-08-28T13:43:12.958Z,27.80
2022-08-28T13:48:06.745Z,27.60
2022-08-28T13:53:01.767Z,27.60
2022-08-28T13:57:55.378Z,28.10
2022-08-28T14:03:06.562Z,28.50
2022-08-28T14:08:01.582Z,28.60
2022-08-28T14:12:55.139Z,28.80
2022-08-28T14:17:48.722Z,28.90
2022-08-28T14:22:42.986Z,29.10
2022-08-28T14:27:38.773Z,29.50
2022-08-28T14:32:32.272Z,30.10
2022-08-28T14:37:25.738Z,30.90
2022-08-28T14:42:19.486Z,31.50
2022-08-28T14:47:14.443Z,30.80
2022-08-28T14:52:08.000Z,31.40
2022-08-28T14:57:01.533Z,31.70
2022-08-28T15:01:58.200Z,31.00
2022-08-28T15:06:58.139Z,29.90
2022-08-28T15:11:52.013Z,29.70
2022-08-28T15:16:47.471Z,30.10
2022-08-28T15:21:44.630Z,30.60
2022-08-28T15:26:40.279Z,30.20
2022-08-28T15:31:36.375Z,29.90
2022-08-28T15:36:30.033Z,29.30
2022-08-28T15:41:26.896Z,29.00
2022-08-28T15:46:22.089Z,28.80
2022-08-28T15:51:17.942Z,28.80
2022-08-28T15:56:13.611Z,28.50
2022-08-28T16:01:08.916Z,28.30
2022-08-28T16:06:05.154Z,29.70
2022-08-28T16:10:58.986Z,32.40
2022-08-28T16:15:52.565Z,34.30
2022-08-28T16:20:46.686Z,32.80
2022-08-28T16:25:42.054Z,32.70
2022-08-28T16:30:39.008Z,30.60
2022-08-28T16:35:40.841Z,29.00
2022-08-28T16:40:45.201Z,28.00
2022-08-28T16:45:39.001Z,27.20
2022-08-28T16:50:32.711Z,26.60
2022-08-28T16:55:26.355Z,26.10
2022-08-28T17:00:22.222Z,25.70
2022-08-28T17:05:20.513Z,25.30
2022-08-28T17:10:17.159Z,25.10
2022-08-28T17:15:18.834Z,24.80
2022-08-28T17:20:34.828Z,24.60
2022-08-28T17:25:28.700Z,24.50
2022-08-28T17:30:22.682Z,24.40
2022-08-28T17:35:18.736Z,24.30
2022-08-28T17:40:15.558Z,24.20
2022-08-28T17:45:10.381Z,24.10
2022-08-28T17:50:05.097Z,23.90
2022-08-28T17:55:00.250Z,23.70
2022-08-28T17:59:54.513Z,23.40
2022-08-28T18:04:47.966Z,23.30
2022-08-28T18:09:41.557Z,23.20
2022-08-28T18:14:37.194Z,23.10
2022-08-28T18:19:30.837Z,22.70
2022-08-28T18:24:24.479Z,22.30
2022-08-28T18:29:18.553Z,22.10
2022-08-28T18:34:13.630Z,21.90
2022-08-28T18:39:07.295Z,21.80
2022-08-28T18:44:04.638Z,21.70
2022-08-28T18:48:58.481Z,21.60
2022-08-28T18:53:53.659Z,21.50
2022-08-28T18:58:47.984Z,21.20
2022-08-28T19:03:41.863Z,21.20
2022-08-28T19:08:38.171Z,21.20
2022-08-28T19:13:33.510Z,21.20
2022-08-28T19:18:28.823Z,21.20
2022-08-28T19:23:22.425Z,21.10
2022-08-28T19:28:16.074Z,21.00
2022-08-28T19:33:12.749Z,21.00
2022-08-28T19:38:07.911Z,21.10
2022-08-28T19:43:05.489Z,21.10
2022-08-28T19:48:01.125Z,20.90
2022-08-28T19:52:56.582Z,20.90
2022-08-28T19:57:50.298Z,20.80
2022-08-28T20:02:43.872Z,20.70
2022-08-28T20:07:37.548Z,20.70
2022-08-28T20:12:32.640Z,20.70
2022-08-28T20:17:26.602Z,20.70
2022-08-28T20:22:21.995Z,20.70
2022-08-28T20:27:15.713Z,20.70
2022-08-28T20:32:11.187Z,20.70
2022-08-28T20:37:11.686Z,20.60
2022-08-28T20:42:06.306Z,20.60
2022-08-28T20:47:00.001Z,20.40
